sensor_id;sensor_type;location;lat;lon;timestamp;pressure;altitude;pressure_sealevel;temperature;humidity
48810;BME280;40070;47.322;18.784;2023-02-18T00:01:09;1006.20;;;12.65;57.72
48810;BME280;40070;47.322;18.784;2023-02-18T00:03:12;1006.12;;;12.78;58.76
48810;BME280;40070;47.322;18.784;2023-02-18T00:05:14;1006.09;;;12.88;58.85
48810;BME280;40070;47.322;18.784;2023-02-18T00:07:17;1006.16;;;13.14;58.31
48810;BME280;40070;47.322;18.784;2023-02-18T00:09:19;1006.16;;;13.19;58.23
48810;BME280;40070;47.322;18.784;2023-02-18T00:11:21;1006.16;;;13.43;57.70
48810;BME280;40070;47.322;18.784;2023-02-18T00:13:24;1006.16;;;13.42;57.67
48810;BME280;40070;47.322;18.784;2023-02-18T00:15:26;1006.20;;;13.50;57.60
48810;BME280;40070;47.322;18.784;2023-02-18T00:17:28;1006.12;;;13.55;57.37
48810;BME280;40070;47.322;18.784;2023-02-18T00:19:31;1006.15;;;13.43;57.58
48810;BME280;40070;47.322;18.784;2023-02-18T00:21:33;1006.10;;;13.56;57.16
48810;BME280;40070;47.322;18.784;2023-02-18T00:23:36;1006.13;;;13.65;56.84
48810;BME280;40070;47.322;18.784;2023-02-18T00:25:38;1006.18;;;13.51;57.11
48810;BME280;40070;47.322;18.784;2023-02-18T00:27:41;1006.08;;;13.59;57.02
48810;BME280;40070;47.322;18.784;2023-02-18T00:29:43;1006.06;;;13.55;57.04
48810;BME280;40070;47.322;18.784;2023-02-18T00:31:45;1006.05;;;13.60;56.90
48810;BME280;40070;47.322;18.784;2023-02-18T00:33:48;1006.07;;;13.66;56.81
48810;BME280;40070;47.322;18.784;2023-02-18T00:35:50;1006.01;;;13.77;56.50
48810;BME280;40070;47.322;18.784;2023-02-18T00:37:52;1005.97;;;13.69;56.67
48810;BME280;40070;47.322;18.784;2023-02-18T00:39:55;1006.04;;;13.80;56.39
48810;BME280;40070;47.322;18.784;2023-02-18T00:41:57;1006.01;;;13.70;56.45
48810;BME280;40070;47.322;18.784;2023-02-18T00:43:59;1005.99;;;13.70;56.68
48810;BME280;40070;47.322;18.784;2023-02-18T00:46:02;1005.92;;;13.69;56.65
48810;BME280;40070;47.322;18.784;2023-02-18T00:48:04;1005.92;;;13.67;56.75
48810;BME280;40070;47.322;18.784;2023-02-18T00:50:07;1006.00;;;13.75;56.46
48810;BME280;40070;47.322;18.784;2023-02-18T00:52:09;1005.99;;;13.86;56.06
48810;BME280;40070;47.322;18.784;2023-02-18T00:54:12;1005.94;;;13.78;56.13
48810;BME280;40070;47.322;18.784;2023-02-18T00:56:14;1005.95;;;13.89;55.69
48810;BME280;40070;47.322;18.784;2023-02-18T00:58:16;1005.95;;;13.97;55.41
48810;BME280;40070;47.322;18.784;2023-02-18T01:00:19;1005.83;;;13.72;55.47
48810;BME280;40070;47.322;18.784;2023-02-18T01:02:21;1005.87;;;13.62;54.72
48810;BME280;40070;47.322;18.784;2023-02-18T01:04:24;1005.97;;;13.36;55.10
48810;BME280;40070;47.322;18.784;2023-02-18T01:06:26;1005.82;;;13.24;54.79
48810;BME280;40070;47.322;18.784;2023-02-18T01:08:28;1005.86;;;12.94;55.92
48810;BME280;40070;47.322;18.784;2023-02-18T01:10:31;1005.80;;;12.94;57.00
48810;BME280;40070;47.322;18.784;2023-02-18T01:12:33;1005.81;;;13.26;57.36
48810;BME280;40070;47.322;18.784;2023-02-18T01:14:36;1005.75;;;13.46;57.23
48810;BME280;40070;47.322;18.784;2023-02-18T01:16:38;1005.85;;;13.62;56.82
48810;BME280;40070;47.322;18.784;2023-02-18T01:18:40;1005.79;;;13.81;56.24
48810;BME280;40070;47.322;18.784;2023-02-18T01:20:43;1005.71;;;13.93;55.95
48810;BME280;40070;47.322;18.784;2023-02-18T01:22:46;1005.66;;;14.01;55.66
48810;BME280;40070;47.322;18.784;2023-02-18T01:24:48;1005.73;;;14.08;55.49
48810;BME280;40070;47.322;18.784;2023-02-18T01:26:50;1005.68;;;14.12;55.33
48810;BME280;40070;47.322;18.784;2023-02-18T01:28:53;1005.65;;;14.02;55.56
48810;BME280;40070;47.322;18.784;2023-02-18T01:30:55;1005.54;;;14.03;55.50
48810;BME280;40070;47.322;18.784;2023-02-18T01:32:58;1005.59;;;14.03;55.28
48810;BME280;40070;47.322;18.784;2023-02-18T01:35:00;1005.61;;;13.98;55.55
48810;BME280;40070;47.322;18.784;2023-02-18T01:37:03;1005.50;;;14.03;55.45
48810;BME280;40070;47.322;18.784;2023-02-18T01:39:05;1005.57;;;14.01;55.45
48810;BME280;40070;47.322;18.784;2023-02-18T01:41:08;1005.46;;;13.97;55.68
48810;BME280;40070;47.322;18.784;2023-02-18T01:43:11;1005.55;;;13.99;55.61
48810;BME280;40070;47.322;18.784;2023-02-18T01:47:34;1005.66;;;14.00;55.81
48810;BME280;40070;47.322;18.784;2023-02-18T01:49:37;1005.63;;;14.03;55.84
48810;BME280;40070;47.322;18.784;2023-02-18T01:51:47;1005.61;;;14.04;55.79
48810;BME280;40070;47.322;18.784;2023-02-18T01:54:13;1005.67;;;14.26;55.41
48810;BME280;40070;47.322;18.784;2023-02-18T01:56:06;1005.60;;;14.22;55.50
48810;BME280;40070;47.322;18.784;2023-02-18T01:58:10;1005.59;;;14.25;55.54
48810;BME280;40070;47.322;18.784;2023-02-18T02:00:16;1005.61;;;14.19;55.18
48810;BME280;40070;47.322;18.784;2023-02-18T02:02:19;1005.64;;;14.08;54.80
48810;BME280;40070;47.322;18.784;2023-02-18T02:04:22;1005.58;;;13.85;54.55
48810;BME280;40070;47.322;18.784;2023-02-18T02:06:25;1005.62;;;13.56;54.12
48810;BME280;40070;47.322;18.784;2023-02-18T02:08:27;1005.59;;;13.37;53.65
48810;BME280;40070;47.322;18.784;2023-02-18T02:13:02;1005.54;;;12.90;54.64
48810;BME280;40070;47.322;18.784;2023-02-18T02:22:12;1005.40;;;12.57;56.38
48810;BME280;40070;47.322;18.784;2023-02-18T02:24:41;1005.44;;;12.35;56.87
48810;BME280;40070;47.322;18.784;2023-02-18T02:27:07;1005.42;;;12.43;56.32
48810;BME280;40070;47.322;18.784;2023-02-18T02:31:36;1005.47;;;12.20;57.06
48810;BME280;40070;47.322;18.784;2023-02-18T02:36:21;1005.43;;;11.69;58.15
48810;BME280;40070;47.322;18.784;2023-02-18T02:38:28;1005.49;;;11.59;58.75
48810;BME280;40070;47.322;18.784;2023-02-18T02:42:58;1005.49;;;11.52;59.12
48810;BME280;40070;47.322;18.784;2023-02-18T02:45:09;1005.48;;;11.64;58.37
48810;BME280;40070;47.322;18.784;2023-02-18T02:47:19;1005.50;;;11.43;58.67
48810;BME280;40070;47.322;18.784;2023-02-18T02:53:51;1005.56;;;11.55;58.43
48810;BME280;40070;47.322;18.784;2023-02-18T02:55:54;1005.57;;;11.66;58.20
48810;BME280;40070;47.322;18.784;2023-02-18T02:57:56;1005.54;;;11.50;58.59
48810;BME280;40070;47.322;18.784;2023-02-18T02:59:59;1005.59;;;11.52;58.60
48810;BME280;40070;47.322;18.784;2023-02-18T03:02:17;1005.42;;;11.68;58.15
48810;BME280;40070;47.322;18.784;2023-02-18T03:07:01;1005.42;;;11.43;58.87
48810;BME280;40070;47.322;18.784;2023-02-18T03:09:12;1005.54;;;11.47;58.92
48810;BME280;40070;47.322;18.784;2023-02-18T03:11:17;1005.44;;;11.60;58.65
48810;BME280;40070;47.322;18.784;2023-02-18T03:15:54;1005.48;;;11.58;58.94
48810;BME280;40070;47.322;18.784;2023-02-18T03:17:58;1005.56;;;11.47;59.52
48810;BME280;40070;47.322;18.784;2023-02-18T03:20:19;1005.55;;;11.55;59.51
48810;BME280;40070;47.322;18.784;2023-02-18T03:22:24;1005.55;;;11.67;59.06
48810;BME280;40070;47.322;18.784;2023-02-18T03:24:38;1005.56;;;11.65;58.96
48810;BME280;40070;47.322;18.784;2023-02-18T03:26:44;1005.57;;;11.78;58.66
48810;BME280;40070;47.322;18.784;2023-02-18T03:28:48;1005.73;;;11.79;58.69
48810;BME280;40070;47.322;18.784;2023-02-18T03:30:54;1005.73;;;11.78;58.83
48810;BME280;40070;47.322;18.784;2023-02-18T03:32:59;1005.82;;;11.62;59.24
48810;BME280;40070;47.322;18.784;2023-02-18T03:35:06;1005.83;;;11.73;58.43
48810;BME280;40070;47.322;18.784;2023-02-18T03:37:09;1005.83;;;11.47;59.01
48810;BME280;40070;47.322;18.784;2023-02-18T03:39:14;1005.86;;;11.46;58.66
48810;BME280;40070;47.322;18.784;2023-02-18T03:41:17;1005.94;;;11.21;58.78
48810;BME280;40070;47.322;18.784;2023-02-18T03:43:20;1005.90;;;10.80;59.72
48810;BME280;40070;47.322;18.784;2023-02-18T03:45:22;1005.94;;;10.94;59.53
48810;BME280;40070;47.322;18.784;2023-02-18T03:47:24;1005.97;;;10.86;59.47
48810;BME280;40070;47.322;18.784;2023-02-18T03:49:27;1005.98;;;10.90;59.46
48810;BME280;40070;47.322;18.784;2023-02-18T03:51:29;1005.99;;;10.91;59.45
48810;BME280;40070;47.322;18.784;2023-02-18T03:53:32;1006.03;;;10.98;59.88
48810;BME280;40070;47.322;18.784;2023-02-18T03:55:34;1005.94;;;10.72;61.56
48810;BME280;40070;47.322;18.784;2023-02-18T03:57:36;1005.92;;;11.13;63.37
48810;BME280;40070;47.322;18.784;2023-02-18T03:59:39;1005.87;;;11.92;63.52
48810;BME280;40070;47.322;18.784;2023-02-18T04:01:41;1005.70;;;12.54;62.20
48810;BME280;40070;47.322;18.784;2023-02-18T04:03:43;1005.76;;;12.96;60.85
48810;BME280;40070;47.322;18.784;2023-02-18T04:05:46;1005.82;;;13.30;59.79
48810;BME280;40070;47.322;18.784;2023-02-18T04:07:48;1005.75;;;13.48;59.04
48810;BME280;40070;47.322;18.784;2023-02-18T04:09:50;1005.72;;;13.66;58.48
48810;BME280;40070;47.322;18.784;2023-02-18T04:11:53;1005.67;;;13.79;57.90
48810;BME280;40070;47.322;18.784;2023-02-18T04:13:55;1005.72;;;13.88;57.56
48810;BME280;40070;47.322;18.784;2023-02-18T04:15:58;1005.69;;;14.04;57.19
48810;BME280;40070;47.322;18.784;2023-02-18T04:18:00;1005.73;;;14.09;56.90
48810;BME280;40070;47.322;18.784;2023-02-18T04:20:02;1005.75;;;14.03;57.00
48810;BME280;40070;47.322;18.784;2023-02-18T04:22:05;1005.71;;;14.10;56.87
48810;BME280;40070;47.322;18.784;2023-02-18T04:24:07;1005.66;;;14.12;56.83
48810;BME280;40070;47.322;18.784;2023-02-18T04:26:10;1005.66;;;14.19;56.50
48810;BME280;40070;47.322;18.784;2023-02-18T04:28:13;1005.71;;;14.20;56.48
48810;BME280;40070;47.322;18.784;2023-02-18T04:30:15;1005.59;;;14.18;56.45
48810;BME280;40070;47.322;18.784;2023-02-18T04:32:18;1005.72;;;14.17;56.54
48810;BME280;40070;47.322;18.784;2023-02-18T04:34:20;1005.63;;;14.07;56.88
48810;BME280;40070;47.322;18.784;2023-02-18T04:36:22;1005.62;;;14.16;56.49
48810;BME280;40070;47.322;18.784;2023-02-18T04:38:25;1005.67;;;14.10;56.63
48810;BME280;40070;47.322;18.784;2023-02-18T04:40:27;1005.70;;;14.14;56.56
48810;BME280;40070;47.322;18.784;2023-02-18T04:42:30;1005.66;;;14.10;56.62
48810;BME280;40070;47.322;18.784;2023-02-18T04:44:32;1005.66;;;14.15;56.61
48810;BME280;40070;47.322;18.784;2023-02-18T04:46:34;1005.70;;;14.18;56.50
48810;BME280;40070;47.322;18.784;2023-02-18T04:48:37;1005.63;;;14.18;56.52
48810;BME280;40070;47.322;18.784;2023-02-18T04:50:39;1005.63;;;14.21;56.50
48810;BME280;40070;47.322;18.784;2023-02-18T04:52:41;1005.76;;;14.06;56.84
48810;BME280;40070;47.322;18.784;2023-02-18T04:54:44;1005.84;;;14.20;56.48
48810;BME280;40070;47.322;18.784;2023-02-18T04:56:47;1005.91;;;14.14;56.66
48810;BME280;40070;47.322;18.784;2023-02-18T04:58:49;1005.91;;;14.14;56.63
48810;BME280;40070;47.322;18.784;2023-02-18T05:00:51;1005.84;;;14.22;56.48
48810;BME280;40070;47.322;18.784;2023-02-18T05:02:54;1005.80;;;14.04;56.89
48810;BME280;40070;47.322;18.784;2023-02-18T05:04:56;1005.85;;;14.11;56.79
48810;BME280;40070;47.322;18.784;2023-02-18T05:06:59;1005.87;;;14.19;56.59
48810;BME280;40070;47.322;18.784;2023-02-18T05:09:01;1005.94;;;14.13;56.80
48810;BME280;40070;47.322;18.784;2023-02-18T05:11:04;1005.91;;;14.27;56.37
48810;BME280;40070;47.322;18.784;2023-02-18T05:13:07;1005.92;;;14.21;56.57
48810;BME280;40070;47.322;18.784;2023-02-18T05:15:09;1005.83;;;14.09;56.87
48810;BME280;40070;47.322;18.784;2023-02-18T05:17:11;1005.89;;;14.16;56.66
48810;BME280;40070;47.322;18.784;2023-02-18T05:19:14;1005.92;;;14.16;56.61
48810;BME280;40070;47.322;18.784;2023-02-18T05:21:17;1005.96;;;14.11;56.77
48810;BME280;40070;47.322;18.784;2023-02-18T05:23:19;1006.06;;;14.19;56.55
48810;BME280;40070;47.322;18.784;2023-02-18T05:25:21;1006.03;;;14.16;56.78
48810;BME280;40070;47.322;18.784;2023-02-18T05:27:24;1006.09;;;14.19;56.74
48810;BME280;40070;47.322;18.784;2023-02-18T05:29:26;1006.11;;;14.09;57.00
48810;BME280;40070;47.322;18.784;2023-02-18T05:31:28;1006.07;;;14.19;56.86
48810;BME280;40070;47.322;18.784;2023-02-18T05:33:31;1006.09;;;14.21;56.85
48810;BME280;40070;47.322;18.784;2023-02-18T05:35:33;1006.12;;;14.25;56.79
48810;BME280;40070;47.322;18.784;2023-02-18T05:37:36;1006.15;;;14.27;56.70
48810;BME280;40070;47.322;18.784;2023-02-18T05:39:39;1006.13;;;14.36;56.49
48810;BME280;40070;47.322;18.784;2023-02-18T05:41:41;1006.20;;;14.27;56.85
48810;BME280;40070;47.322;18.784;2023-02-18T05:43:44;1006.29;;;14.30;56.86
48810;BME280;40070;47.322;18.784;2023-02-18T05:45:46;1006.29;;;14.42;56.58
48810;BME280;40070;47.322;18.784;2023-02-18T05:47:48;1006.33;;;14.42;56.59
48810;BME280;40070;47.322;18.784;2023-02-18T05:49:51;1006.38;;;14.23;57.15
48810;BME280;40070;47.322;18.784;2023-02-18T05:51:53;1006.47;;;14.23;57.21
48810;BME280;40070;47.322;18.784;2023-02-18T05:53:55;1006.50;;;14.34;57.02
48810;BME280;40070;47.322;18.784;2023-02-18T05:55:58;1006.55;;;14.32;57.13
48810;BME280;40070;47.322;18.784;2023-02-18T05:58:00;1006.66;;;14.20;57.58
48810;BME280;40070;47.322;18.784;2023-02-18T06:00:03;1006.67;;;14.21;57.57
48810;BME280;40070;47.322;18.784;2023-02-18T06:02:05;1006.74;;;14.30;57.36
48810;BME280;40070;47.322;18.784;2023-02-18T06:04:08;1006.77;;;14.18;57.67
48810;BME280;40070;47.322;18.784;2023-02-18T06:06:10;1006.84;;;14.23;57.64
48810;BME280;40070;47.322;18.784;2023-02-18T06:08:13;1006.87;;;14.22;57.79
48810;BME280;40070;47.322;18.784;2023-02-18T06:10:15;1006.85;;;14.05;58.32
48810;BME280;40070;47.322;18.784;2023-02-18T06:12:18;1006.93;;;14.17;58.09
48810;BME280;40070;47.322;18.784;2023-02-18T06:14:20;1006.90;;;14.00;58.66
48810;BME280;40070;47.322;18.784;2023-02-18T06:16:23;1007.04;;;13.87;59.10
48810;BME280;40070;47.322;18.784;2023-02-18T06:18:25;1007.04;;;13.94;58.98
48810;BME280;40070;47.322;18.784;2023-02-18T06:20:27;1007.21;;;13.77;59.66
48810;BME280;40070;47.322;18.784;2023-02-18T06:22:30;1007.15;;;13.84;59.79
48810;BME280;40070;47.322;18.784;2023-02-18T06:24:32;1007.20;;;13.62;61.13
48810;BME280;40070;47.322;18.784;2023-02-18T06:26:35;1007.19;;;13.51;62.06
48810;BME280;40070;47.322;18.784;2023-02-18T06:28:37;1007.20;;;13.51;62.80
48810;BME280;40070;47.322;18.784;2023-02-18T06:30:39;1007.16;;;13.49;63.40
48810;BME280;40070;47.322;18.784;2023-02-18T06:32:42;1007.21;;;13.20;64.58
48810;BME280;40070;47.322;18.784;2023-02-18T06:34:44;1007.24;;;13.22;64.81
48810;BME280;40070;47.322;18.784;2023-02-18T06:36:46;1007.25;;;13.28;64.94
48810;BME280;40070;47.322;18.784;2023-02-18T06:38:49;1007.29;;;13.27;65.47
48810;BME280;40070;47.322;18.784;2023-02-18T06:40:51;1007.33;;;13.05;66.81
48810;BME280;40070;47.322;18.784;2023-02-18T06:42:54;1007.37;;;13.02;67.33
48810;BME280;40070;47.322;18.784;2023-02-18T06:44:56;1007.33;;;13.01;67.77
48810;BME280;40070;47.322;18.784;2023-02-18T06:46:59;1007.33;;;12.98;67.92
48810;BME280;40070;47.322;18.784;2023-02-18T06:49:01;1007.35;;;12.95;68.25
48810;BME280;40070;47.322;18.784;2023-02-18T06:51:04;1007.32;;;12.87;68.63
48810;BME280;40070;47.322;18.784;2023-02-18T06:53:06;1007.33;;;13.03;68.34
48810;BME280;40070;47.322;18.784;2023-02-18T06:55:09;1007.32;;;12.76;69.15
48810;BME280;40070;47.322;18.784;2023-02-18T06:57:11;1007.36;;;12.92;68.78
48810;BME280;40070;47.322;18.784;2023-02-18T06:59:14;1007.37;;;12.89;68.65
48810;BME280;40070;47.322;18.784;2023-02-18T07:01:16;1007.37;;;12.91;68.43
48810;BME280;40070;47.322;18.784;2023-02-18T07:03:18;1007.29;;;13.07;67.42
48810;BME280;40070;47.322;18.784;2023-02-18T07:05:21;1007.29;;;12.95;68.00
48810;BME280;40070;47.322;18.784;2023-02-18T07:07:23;1007.32;;;12.98;67.21
48810;BME280;40070;47.322;18.784;2023-02-18T07:09:26;1007.33;;;13.09;66.59
48810;BME280;40070;47.322;18.784;2023-02-18T07:11:28;1007.27;;;13.15;66.20
48810;BME280;40070;47.322;18.784;2023-02-18T07:13:30;1007.28;;;13.12;65.51
48810;BME280;40070;47.322;18.784;2023-02-18T07:15:33;1007.27;;;13.21;65.05
48810;BME280;40070;47.322;18.784;2023-02-18T07:17:35;1007.27;;;13.31;64.47
48810;BME280;40070;47.322;18.784;2023-02-18T07:19:37;1007.28;;;13.35;64.11
48810;BME280;40070;47.322;18.784;2023-02-18T07:21:40;1007.17;;;13.38;63.58
48810;BME280;40070;47.322;18.784;2023-02-18T07:23:42;1007.26;;;13.35;63.56
48810;BME280;40070;47.322;18.784;2023-02-18T07:25:44;1007.30;;;13.40;63.46
48810;BME280;40070;47.322;18.784;2023-02-18T07:27:47;1007.28;;;13.53;63.16
48810;BME280;40070;47.322;18.784;2023-02-18T07:29:49;1007.27;;;13.46;63.31
48810;BME280;40070;47.322;18.784;2023-02-18T07:31:52;1007.18;;;13.51;63.18
48810;BME280;40070;47.322;18.784;2023-02-18T07:33:54;1007.14;;;13.51;63.07
48810;BME280;40070;47.322;18.784;2023-02-18T07:35:57;1007.18;;;13.51;62.79
48810;BME280;40070;47.322;18.784;2023-02-18T07:38:00;1007.17;;;13.48;62.87
48810;BME280;40070;47.322;18.784;2023-02-18T07:40:02;1007.17;;;13.62;62.39
48810;BME280;40070;47.322;18.784;2023-02-18T07:42:05;1007.13;;;13.76;62.06
48810;BME280;40070;47.322;18.784;2023-02-18T07:44:07;1007.11;;;13.69;62.02
48810;BME280;40070;47.322;18.784;2023-02-18T07:46:09;1007.21;;;13.66;62.22
48810;BME280;40070;47.322;18.784;2023-02-18T07:48:12;1007.11;;;13.77;62.11
48810;BME280;40070;47.322;18.784;2023-02-18T07:50:14;1007.08;;;13.70;62.21
48810;BME280;40070;47.322;18.784;2023-02-18T07:52:17;1007.15;;;13.70;62.42
48810;BME280;40070;47.322;18.784;2023-02-18T07:54:19;1007.08;;;13.70;62.27
48810;BME280;40070;47.322;18.784;2023-02-18T07:56:21;1007.07;;;13.69;62.37
48810;BME280;40070;47.322;18.784;2023-02-18T07:58:28;1007.09;;;13.89;62.12
48810;BME280;40070;47.322;18.784;2023-02-18T08:00:31;1007.02;;;14.01;61.58
48810;BME280;40070;47.322;18.784;2023-02-18T08:02:33;1007.03;;;14.00;61.59
48810;BME280;40070;47.322;18.784;2023-02-18T08:04:35;1006.97;;;13.88;61.79
48810;BME280;40070;47.322;18.784;2023-02-18T08:06:39;1006.99;;;13.86;61.95
48810;BME280;40070;47.322;18.784;2023-02-18T08:08:42;1007.06;;;14.10;61.66
48810;BME280;40070;47.322;18.784;2023-02-18T08:10:45;1007.12;;;14.12;61.50
48810;BME280;40070;47.322;18.784;2023-02-18T08:12:47;1007.06;;;14.21;61.38
48810;BME280;40070;47.322;18.784;2023-02-18T08:14:50;1007.03;;;14.32;61.43
48810;BME280;40070;47.322;18.784;2023-02-18T08:16:52;1007.08;;;14.46;60.95
48810;BME280;40070;47.322;18.784;2023-02-18T08:18:54;1007.10;;;14.49;60.59
48810;BME280;40070;47.322;18.784;2023-02-18T08:20:57;1007.15;;;14.16;61.55
48810;BME280;40070;47.322;18.784;2023-02-18T08:22:59;1007.13;;;14.18;61.25
48810;BME280;40070;47.322;18.784;2023-02-18T08:25:02;1007.16;;;14.35;60.90
48810;BME280;40070;47.322;18.784;2023-02-18T08:27:04;1007.18;;;14.58;60.40
48810;BME280;40070;47.322;18.784;2023-02-18T08:29:06;1007.15;;;14.92;59.64
48810;BME280;40070;47.322;18.784;2023-02-18T08:33:32;1007.07;;;15.17;58.84
48810;BME280;40070;47.322;18.784;2023-02-18T08:35:35;1007.13;;;15.06;59.27
48810;BME280;40070;47.322;18.784;2023-02-18T08:37:37;1007.12;;;15.28;58.46
48810;BME280;40070;47.322;18.784;2023-02-18T08:39:40;1007.09;;;15.37;58.44
48810;BME280;40070;47.322;18.784;2023-02-18T08:41:42;1007.04;;;15.35;58.26
48810;BME280;40070;47.322;18.784;2023-02-18T08:43:44;1007.01;;;15.56;57.98
48810;BME280;40070;47.322;18.784;2023-02-18T08:45:47;1007.00;;;15.47;58.03
48810;BME280;40070;47.322;18.784;2023-02-18T08:47:49;1006.93;;;15.48;58.11
48810;BME280;40070;47.322;18.784;2023-02-18T08:49:52;1006.88;;;15.48;57.65
48810;BME280;40070;47.322;18.784;2023-02-18T08:51:54;1006.87;;;15.57;57.76
48810;BME280;40070;47.322;18.784;2023-02-18T08:53:57;1006.86;;;15.41;58.03
48810;BME280;40070;47.322;18.784;2023-02-18T08:55:59;1006.89;;;15.58;57.79
48810;BME280;40070;47.322;18.784;2023-02-18T08:58:03;1006.91;;;15.63;57.09
48810;BME280;40070;47.322;18.784;2023-02-18T09:00:05;1006.88;;;15.65;56.84
48810;BME280;40070;47.322;18.784;2023-02-18T09:02:17;1006.83;;;15.77;57.38
48810;BME280;40070;47.322;18.784;2023-02-18T09:04:19;1006.80;;;15.88;56.55
48810;BME280;40070;47.322;18.784;2023-02-18T09:06:22;1006.84;;;16.17;55.68
48810;BME280;40070;47.322;18.784;2023-02-18T09:08:25;1006.80;;;16.13;55.40
48810;BME280;40070;47.322;18.784;2023-02-18T09:10:27;1006.69;;;16.12;55.43
48810;BME280;40070;47.322;18.784;2023-02-18T09:12:30;1006.73;;;16.16;55.23
48810;BME280;40070;47.322;18.784;2023-02-18T09:14:32;1006.68;;;16.16;55.55
48810;BME280;40070;47.322;18.784;2023-02-18T09:16:34;1006.73;;;16.36;55.11
48810;BME280;40070;47.322;18.784;2023-02-18T09:18:37;1006.70;;;16.34;54.66
48810;BME280;40070;47.322;18.784;2023-02-18T09:20:39;1006.69;;;16.46;54.17
48810;BME280;40070;47.322;18.784;2023-02-18T09:22:41;1006.69;;;16.58;54.49
48810;BME280;40070;47.322;18.784;2023-02-18T09:24:44;1006.69;;;16.62;53.66
48810;BME280;40070;47.322;18.784;2023-02-18T09:26:46;1006.62;;;16.69;53.93
48810;BME280;40070;47.322;18.784;2023-02-18T09:28:49;1006.70;;;16.86;53.63
48810;BME280;40070;47.322;18.784;2023-02-18T09:30:51;1006.67;;;16.95;53.10
48810;BME280;40070;47.322;18.784;2023-02-18T09:32:54;1006.58;;;17.17;52.72
48810;BME280;40070;47.322;18.784;2023-02-18T09:34:56;1006.53;;;17.22;51.68
48810;BME280;40070;47.322;18.784;2023-02-18T09:36:58;1006.56;;;17.22;52.07
48810;BME280;40070;47.322;18.784;2023-02-18T09:39:01;1006.55;;;17.21;51.48
48810;BME280;40070;47.322;18.784;2023-02-18T09:41:04;1006.56;;;17.39;51.70
48810;BME280;40070;47.322;18.784;2023-02-18T09:43:12;1006.53;;;17.71;50.96
48810;BME280;40070;47.322;18.784;2023-02-18T09:45:19;1006.61;;;17.74;50.95
48810;BME280;40070;47.322;18.784;2023-02-18T09:47:29;1006.60;;;17.71;50.84
48810;BME280;40070;47.322;18.784;2023-02-18T09:49:33;1006.63;;;17.72;50.51
48810;BME280;40070;47.322;18.784;2023-02-18T09:51:38;1006.61;;;17.74;50.80
48810;BME280;40070;47.322;18.784;2023-02-18T09:53:40;1006.67;;;17.59;50.73
48810;BME280;40070;47.322;18.784;2023-02-18T09:55:43;1006.70;;;17.49;50.70
48810;BME280;40070;47.322;18.784;2023-02-18T09:57:48;1006.77;;;17.61;50.64
48810;BME280;40070;47.322;18.784;2023-02-18T09:59:52;1006.72;;;17.21;51.46
48810;BME280;40070;47.322;18.784;2023-02-18T10:01:57;1006.79;;;16.92;52.51
48810;BME280;40070;47.322;18.784;2023-02-18T10:04:11;1006.80;;;16.85;52.29
48810;BME280;40070;47.322;18.784;2023-02-18T10:06:19;1006.79;;;16.87;52.74
48810;BME280;40070;47.322;18.784;2023-02-18T10:08:24;1006.80;;;16.87;52.39
48810;BME280;40070;47.322;18.784;2023-02-18T10:10:48;1006.76;;;16.49;52.77
48810;BME280;40070;47.322;18.784;2023-02-18T10:12:42;1006.79;;;16.27;53.07
48810;BME280;40070;47.322;18.784;2023-02-18T10:14:48;1006.75;;;16.24;53.56
48810;BME280;40070;47.322;18.784;2023-02-18T10:16:51;1006.70;;;16.26;53.53
48810;BME280;40070;47.322;18.784;2023-02-18T10:18:57;1006.66;;;16.34;53.78
48810;BME280;40070;47.322;18.784;2023-02-18T10:21:03;1006.56;;;16.72;53.29
48810;BME280;40070;47.322;18.784;2023-02-18T10:23:07;1006.53;;;16.95;52.56
48810;BME280;40070;47.322;18.784;2023-02-18T10:25:11;1006.51;;;17.14;52.17
48810;BME280;40070;47.322;18.784;2023-02-18T10:27:25;1006.49;;;17.22;52.02
48810;BME280;40070;47.322;18.784;2023-02-18T10:29:29;1006.40;;;17.12;51.86
48810;BME280;40070;47.322;18.784;2023-02-18T10:31:33;1006.40;;;17.12;51.98
48810;BME280;40070;47.322;18.784;2023-02-18T10:33:50;1006.43;;;17.00;52.24
48810;BME280;40070;47.322;18.784;2023-02-18T10:38:36;1006.34;;;17.15;52.43
48810;BME280;40070;47.322;18.784;2023-02-18T10:48:06;1006.37;;;16.80;53.23
48810;BME280;40070;47.322;18.784;2023-02-18T10:50:28;1006.28;;;16.77;53.37
48810;BME280;40070;47.322;18.784;2023-02-18T10:52:33;1006.26;;;16.64;53.60
48810;BME280;40070;47.322;18.784;2023-02-18T10:54:52;1006.23;;;16.41;54.21
48810;BME280;40070;47.322;18.784;2023-02-18T10:56:58;1006.13;;;16.60;53.79
48810;BME280;40070;47.322;18.784;2023-02-18T10:59:11;1006.19;;;16.59;53.95
48810;BME280;40070;47.322;18.784;2023-02-18T11:01:20;1006.08;;;16.31;53.81
48810;BME280;40070;47.322;18.784;2023-02-18T11:03:35;1006.16;;;16.22;53.94
48810;BME280;40070;47.322;18.784;2023-02-18T11:05:37;1006.02;;;16.15;54.21
48810;BME280;40070;47.322;18.784;2023-02-18T11:07:39;1006.03;;;16.13;54.60
48810;BME280;40070;47.322;18.784;2023-02-18T11:09:45;1005.97;;;15.99;54.56
48810;BME280;40070;47.322;18.784;2023-02-18T11:11:49;1006.03;;;16.06;54.22
48810;BME280;40070;47.322;18.784;2023-02-18T11:13:55;1005.93;;;16.09;54.01
48810;BME280;40070;47.322;18.784;2023-02-18T11:16:03;1005.95;;;16.19;54.00
48810;BME280;40070;47.322;18.784;2023-02-18T11:18:41;1005.88;;;16.12;53.65
48810;BME280;40070;47.322;18.784;2023-02-18T11:20:31;1005.74;;;16.16;52.98
48810;BME280;40070;47.322;18.784;2023-02-18T11:22:34;1005.78;;;16.19;53.14
48810;BME280;40070;47.322;18.784;2023-02-18T11:24:38;1005.74;;;16.31;52.85
48810;BME280;40070;47.322;18.784;2023-02-18T11:26:40;1005.71;;;16.38;52.85
48810;BME280;40070;47.322;18.784;2023-02-18T11:28:45;1005.74;;;16.43;52.59
48810;BME280;40070;47.322;18.784;2023-02-18T11:30:49;1005.70;;;16.45;52.58
48810;BME280;40070;47.322;18.784;2023-02-18T11:32:55;1005.67;;;16.48;51.98
48810;BME280;40070;47.322;18.784;2023-02-18T11:35:00;1005.65;;;16.41;52.33
48810;BME280;40070;47.322;18.784;2023-02-18T11:37:07;1005.58;;;16.27;52.38